sensor_id;sensor_type;location;lat;lon;timestamp;P1;durP1;ratioP1;P2;durP2;ratioP2
39502;SDS011;26970;49.900;10.774;2023-02-26T00:00:15;3.58;;;1.90;;
39502;SDS011;26970;49.900;10.774;2023-02-26T00:02:44;2.00;;;1.42;;
39502;SDS011;26970;49.900;10.774;2023-02-26T00:05:12;4.80;;;1.60;;
39502;SDS011;26970;49.900;10.774;2023-02-26T00:07:39;3.42;;;1.77;;
39502;SDS011;26970;49.900;10.774;2023-02-26T00:10:06;3.47;;;1.65;;
39502;SDS011;26970;49.900;10.774;2023-02-26T00:12:34;5.95;;;1.70;;
39502;SDS011;26970;49.900;10.774;2023-02-26T00:15:00;2.35;;;1.70;;
39502;SDS011;26970;49.900;10.774;2023-02-26T00:20:11;4.05;;;1.70;;
39502;SDS011;26970;49.900;10.774;2023-02-26T00:22:38;4.13;;;1.65;;
39502;SDS011;26970;49.900;10.774;2023-02-26T00:25:04;3.42;;;1.65;;
39502;SDS011;26970;49.900;10.774;2023-02-26T00:27:30;4.63;;;1.75;;
39502;SDS011;26970;49.900;10.774;2023-02-26T00:29:55;5.53;;;2.05;;
39502;SDS011;26970;49.900;10.774;2023-02-26T00:32:21;4.53;;;1.80;;
39502;SDS011;26970;49.900;10.774;2023-02-26T00:34:47;5.00;;;1.60;;
39502;SDS011;26970;49.900;10.774;2023-02-26T00:40:06;3.97;;;1.73;;
39502;SDS011;26970;49.900;10.774;2023-02-26T00:45:10;3.47;;;1.70;;
39502;SDS011;26970;49.900;10.774;2023-02-26T00:47:48;3.40;;;1.50;;
39502;SDS011;26970;49.900;10.774;2023-02-26T00:50:40;5.22;;;1.80;;
39502;SDS011;26970;49.900;10.774;2023-02-26T00:53:21;2.97;;;1.30;;
39502;SDS011;26970;49.900;10.774;2023-02-26T00:55:52;1.95;;;1.50;;
39502;SDS011;26970;49.900;10.774;2023-02-26T00:58:18;6.05;;;1.90;;
39502;SDS011;26970;49.900;10.774;2023-02-26T01:00:43;5.80;;;2.00;;
39502;SDS011;26970;49.900;10.774;2023-02-26T01:03:09;2.08;;;1.45;;
39502;SDS011;26970;49.900;10.774;2023-02-26T01:05:36;4.65;;;1.63;;
39502;SDS011;26970;49.900;10.774;2023-02-26T01:10:37;4.88;;;1.60;;
39502;SDS011;26970;49.900;10.774;2023-02-26T01:13:04;4.90;;;1.80;;
39502;SDS011;26970;49.900;10.774;2023-02-26T01:15:29;2.08;;;1.45;;
39502;SDS011;26970;49.900;10.774;2023-02-26T01:18:01;3.17;;;1.85;;
39502;SDS011;26970;49.900;10.774;2023-02-26T01:20:48;2.72;;;1.70;;
39502;SDS011;26970;49.900;10.774;2023-02-26T01:23:19;3.88;;;1.77;;
39502;SDS011;26970;49.900;10.774;2023-02-26T01:25:50;5.15;;;2.00;;
39502;SDS011;26970;49.900;10.774;2023-02-26T01:30:47;4.15;;;1.60;;
39502;SDS011;26970;49.900;10.774;2023-02-26T01:35:49;6.28;;;1.88;;
39502;SDS011;26970;49.900;10.774;2023-02-26T01:44:02;4.20;;;1.45;;
39502;SDS011;26970;49.900;10.774;2023-02-26T01:49:12;4.90;;;1.92;;
39502;SDS011;26970;49.900;10.774;2023-02-26T01:54:20;2.70;;;1.42;;
39502;SDS011;26970;49.900;10.774;2023-02-26T01:56:48;4.00;;;1.70;;
39502;SDS011;26970;49.900;10.774;2023-02-26T02:01:48;3.08;;;1.50;;
39502;SDS011;26970;49.900;10.774;2023-02-26T02:04:18;2.55;;;1.83;;
39502;SDS011;26970;49.900;10.774;2023-02-26T02:06:44;2.22;;;1.48;;
39502;SDS011;26970;49.900;10.774;2023-02-26T02:09:11;3.03;;;1.67;;
39502;SDS011;26970;49.900;10.774;2023-02-26T02:11:45;3.72;;;1.75;;
39502;SDS011;26970;49.900;10.774;2023-02-26T02:17:02;5.57;;;2.10;;
39502;SDS011;26970;49.900;10.774;2023-02-26T02:25:48;9.35;;;2.28;;
39502;SDS011;26970;49.900;10.774;2023-02-26T02:28:29;4.47;;;1.63;;
39502;SDS011;26970;49.900;10.774;2023-02-26T02:34:02;13.85;;;3.50;;
39502;SDS011;26970;49.900;10.774;2023-02-26T02:41:58;3.92;;;1.95;;
39502;SDS011;26970;49.900;10.774;2023-02-26T02:44:28;4.63;;;2.17;;
39502;SDS011;26970;49.900;10.774;2023-02-26T02:46:58;4.80;;;1.90;;
39502;SDS011;26970;49.900;10.774;2023-02-26T02:49:35;9.02;;;1.88;;
39502;SDS011;26970;49.900;10.774;2023-02-26T02:52:10;3.55;;;2.00;;
39502;SDS011;26970;49.900;10.774;2023-02-26T02:54:42;5.97;;;2.10;;
39502;SDS011;26970;49.900;10.774;2023-02-26T02:57:16;6.88;;;2.13;;
39502;SDS011;26970;49.900;10.774;2023-02-26T03:00:07;6.63;;;2.38;;
39502;SDS011;26970;49.900;10.774;2023-02-26T03:05:01;3.15;;;1.77;;
39502;SDS011;26970;49.900;10.774;2023-02-26T03:07:28;4.35;;;2.00;;
39502;SDS011;26970;49.900;10.774;2023-02-26T03:09:56;4.20;;;1.83;;
39502;SDS011;26970;49.900;10.774;2023-02-26T03:12:24;3.45;;;1.92;;
39502;SDS011;26970;49.900;10.774;2023-02-26T03:14:51;1.98;;;1.52;;
39502;SDS011;26970;49.900;10.774;2023-02-26T03:22:58;3.13;;;1.50;;
39502;SDS011;26970;49.900;10.774;2023-02-26T03:35:44;5.82;;;1.85;;
39502;SDS011;26970;49.900;10.774;2023-02-26T03:38:27;7.10;;;1.73;;
39502;SDS011;26970;49.900;10.774;2023-02-26T03:41:00;5.50;;;2.00;;
39502;SDS011;26970;49.900;10.774;2023-02-26T03:46:15;3.97;;;1.52;;
39502;SDS011;26970;49.900;10.774;2023-02-26T03:48:47;8.60;;;1.88;;
39502;SDS011;26970;49.900;10.774;2023-02-26T03:51:15;4.32;;;1.83;;
39502;SDS011;26970;49.900;10.774;2023-02-26T03:53:46;4.78;;;2.08;;
39502;SDS011;26970;49.900;10.774;2023-02-26T03:56:23;8.38;;;2.17;;
39502;SDS011;26970;49.900;10.774;2023-02-26T03:58:53;3.75;;;2.08;;
39502;SDS011;26970;49.900;10.774;2023-02-26T04:01:28;4.10;;;2.38;;
39502;SDS011;26970;49.900;10.774;2023-02-26T04:04:01;4.38;;;1.90;;
39502;SDS011;26970;49.900;10.774;2023-02-26T04:06:47;4.63;;;1.83;;
39502;SDS011;26970;49.900;10.774;2023-02-26T04:09:13;6.90;;;2.35;;
39502;SDS011;26970;49.900;10.774;2023-02-26T04:11:39;3.80;;;2.03;;
39502;SDS011;26970;49.900;10.774;2023-02-26T04:14:05;11.25;;;2.35;;
39502;SDS011;26970;49.900;10.774;2023-02-26T04:16:31;2.50;;;1.63;;
39502;SDS011;26970;49.900;10.774;2023-02-26T04:18:56;6.65;;;2.17;;
39502;SDS011;26970;49.900;10.774;2023-02-26T04:21:22;4.30;;;2.10;;
39502;SDS011;26970;49.900;10.774;2023-02-26T04:23:48;2.92;;;2.17;;
39502;SDS011;26970;49.900;10.774;2023-02-26T04:26:13;7.93;;;2.10;;
39502;SDS011;26970;49.900;10.774;2023-02-26T04:28:39;4.00;;;1.98;;
39502;SDS011;26970;49.900;10.774;2023-02-26T04:31:05;6.68;;;2.10;;
39502;SDS011;26970;49.900;10.774;2023-02-26T04:33:31;5.32;;;2.50;;
39502;SDS011;26970;49.900;10.774;2023-02-26T04:35:58;6.07;;;2.28;;
39502;SDS011;26970;49.900;10.774;2023-02-26T04:38:24;9.25;;;2.13;;
39502;SDS011;26970;49.900;10.774;2023-02-26T04:40:51;8.50;;;2.17;;
39502;SDS011;26970;49.900;10.774;2023-02-26T04:43:16;5.20;;;2.03;;
39502;SDS011;26970;49.900;10.774;2023-02-26T04:45:46;3.92;;;2.08;;
39502;SDS011;26970;49.900;10.774;2023-02-26T04:48:12;5.57;;;1.95;;
39502;SDS011;26970;49.900;10.774;2023-02-26T04:50:38;5.90;;;1.98;;
39502;SDS011;26970;49.900;10.774;2023-02-26T04:53:04;7.22;;;2.20;;
39502;SDS011;26970;49.900;10.774;2023-02-26T04:55:30;4.22;;;1.63;;
39502;SDS011;26970;49.900;10.774;2023-02-26T04:57:55;3.72;;;1.63;;
39502;SDS011;26970;49.900;10.774;2023-02-26T05:00:21;5.68;;;2.28;;
39502;SDS011;26970;49.900;10.774;2023-02-26T05:02:46;8.70;;;2.17;;
39502;SDS011;26970;49.900;10.774;2023-02-26T05:05:12;4.65;;;1.52;;
39502;SDS011;26970;49.900;10.774;2023-02-26T05:07:38;4.28;;;2.17;;
39502;SDS011;26970;49.900;10.774;2023-02-26T05:10:04;2.40;;;1.98;;
39502;SDS011;26970;49.900;10.774;2023-02-26T05:12:31;7.05;;;2.05;;
39502;SDS011;26970;49.900;10.774;2023-02-26T05:14:57;6.00;;;2.20;;
39502;SDS011;26970;49.900;10.774;2023-02-26T05:17:23;4.00;;;2.10;;
39502;SDS011;26970;49.900;10.774;2023-02-26T05:19:49;5.93;;;2.15;;
39502;SDS011;26970;49.900;10.774;2023-02-26T05:22:14;4.82;;;1.90;;
39502;SDS011;26970;49.900;10.774;2023-02-26T05:24:40;4.78;;;1.70;;
39502;SDS011;26970;49.900;10.774;2023-02-26T05:27:05;3.90;;;1.60;;
39502;SDS011;26970;49.900;10.774;2023-02-26T05:29:31;3.78;;;1.98;;
39502;SDS011;26970;49.900;10.774;2023-02-26T05:31:57;5.07;;;2.17;;
39502;SDS011;26970;49.900;10.774;2023-02-26T05:34:22;5.95;;;2.10;;
39502;SDS011;26970;49.900;10.774;2023-02-26T05:36:48;3.03;;;2.03;;
39502;SDS011;26970;49.900;10.774;2023-02-26T05:39:14;2.78;;;1.98;;
39502;SDS011;26970;49.900;10.774;2023-02-26T05:41:39;7.47;;;2.28;;
39502;SDS011;26970;49.900;10.774;2023-02-26T05:44:05;3.90;;;2.00;;
39502;SDS011;26970;49.900;10.774;2023-02-26T05:46:32;3.35;;;2.00;;
39502;SDS011;26970;49.900;10.774;2023-02-26T05:48:57;6.97;;;2.67;;
39502;SDS011;26970;49.900;10.774;2023-02-26T05:51:23;5.30;;;2.35;;
39502;SDS011;26970;49.900;10.774;2023-02-26T05:53:49;4.82;;;2.60;;
39502;SDS011;26970;49.900;10.774;2023-02-26T05:56:14;4.32;;;2.42;;
39502;SDS011;26970;49.900;10.774;2023-02-26T05:58:40;7.10;;;2.53;;
39502;SDS011;26970;49.900;10.774;2023-02-26T06:01:06;7.13;;;2.50;;
39502;SDS011;26970;49.900;10.774;2023-02-26T06:03:31;6.43;;;2.50;;
39502;SDS011;26970;49.900;10.774;2023-02-26T06:05:57;6.03;;;2.42;;
39502;SDS011;26970;49.900;10.774;2023-02-26T06:08:23;6.38;;;2.58;;
39502;SDS011;26970;49.900;10.774;2023-02-26T06:10:49;6.43;;;2.65;;
39502;SDS011;26970;49.900;10.774;2023-02-26T06:13:15;6.72;;;3.08;;
39502;SDS011;26970;49.900;10.774;2023-02-26T06:15:41;5.70;;;2.70;;
39502;SDS011;26970;49.900;10.774;2023-02-26T06:18:06;5.80;;;2.50;;
39502;SDS011;26970;49.900;10.774;2023-02-26T06:20:32;6.05;;;2.65;;
39502;SDS011;26970;49.900;10.774;2023-02-26T06:22:58;4.78;;;2.35;;
39502;SDS011;26970;49.900;10.774;2023-02-26T06:25:24;5.15;;;2.28;;
39502;SDS011;26970;49.900;10.774;2023-02-26T06:27:49;6.50;;;2.08;;
39502;SDS011;26970;49.900;10.774;2023-02-26T06:30:15;3.30;;;1.90;;
39502;SDS011;26970;49.900;10.774;2023-02-26T06:32:42;7.55;;;3.40;;
39502;SDS011;26970;49.900;10.774;2023-02-26T06:35:09;5.85;;;2.47;;
39502;SDS011;26970;49.900;10.774;2023-02-26T06:37:35;8.43;;;3.10;;
39502;SDS011;26970;49.900;10.774;2023-02-26T06:40:01;5.45;;;2.25;;
39502;SDS011;26970;49.900;10.774;2023-02-26T06:42:27;5.60;;;2.85;;
39502;SDS011;26970;49.900;10.774;2023-02-26T06:44:53;8.88;;;3.33;;
39502;SDS011;26970;49.900;10.774;2023-02-26T06:47:19;8.35;;;3.00;;
39502;SDS011;26970;49.900;10.774;2023-02-26T06:49:44;7.93;;;3.80;;
39502;SDS011;26970;49.900;10.774;2023-02-26T06:52:10;8.93;;;3.53;;
39502;SDS011;26970;49.900;10.774;2023-02-26T06:54:35;7.10;;;3.20;;
39502;SDS011;26970;49.900;10.774;2023-02-26T06:57:01;5.07;;;2.85;;
39502;SDS011;26970;49.900;10.774;2023-02-26T06:59:27;7.13;;;2.20;;
39502;SDS011;26970;49.900;10.774;2023-02-26T07:01:53;7.55;;;3.08;;
39502;SDS011;26970;49.900;10.774;2023-02-26T07:04:18;8.70;;;4.20;;
39502;SDS011;26970;49.900;10.774;2023-02-26T07:06:44;3.25;;;1.75;;
39502;SDS011;26970;49.900;10.774;2023-02-26T07:09:09;5.82;;;2.03;;
39502;SDS011;26970;49.900;10.774;2023-02-26T07:11:35;2.97;;;2.00;;
39502;SDS011;26970;49.900;10.774;2023-02-26T07:14:01;10.20;;;2.78;;
39502;SDS011;26970;49.900;10.774;2023-02-26T07:16:26;9.13;;;2.38;;
39502;SDS011;26970;49.900;10.774;2023-02-26T07:18:52;2.80;;;1.67;;
39502;SDS011;26970;49.900;10.774;2023-02-26T07:21:17;7.07;;;2.50;;
39502;SDS011;26970;49.900;10.774;2023-02-26T07:23:43;4.57;;;2.60;;
39502;SDS011;26970;49.900;10.774;2023-02-26T07:26:08;6.03;;;2.63;;
39502;SDS011;26970;49.900;10.774;2023-02-26T07:28:34;7.30;;;2.88;;
39502;SDS011;26970;49.900;10.774;2023-02-26T07:31:00;8.35;;;3.45;;
39502;SDS011;26970;49.900;10.774;2023-02-26T07:33:26;4.15;;;2.33;;
39502;SDS011;26970;49.900;10.774;2023-02-26T07:35:52;4.65;;;2.10;;
39502;SDS011;26970;49.900;10.774;2023-02-26T07:38:18;3.13;;;1.92;;
39502;SDS011;26970;49.900;10.774;2023-02-26T07:40:45;1.67;;;1.58;;
39502;SDS011;26970;49.900;10.774;2023-02-26T07:43:11;3.92;;;2.22;;
39502;SDS011;26970;49.900;10.774;2023-02-26T07:45:36;2.40;;;1.65;;
39502;SDS011;26970;49.900;10.774;2023-02-26T07:48:02;3.33;;;1.77;;
39502;SDS011;26970;49.900;10.774;2023-02-26T07:50:28;1.63;;;1.50;;
39502;SDS011;26970;49.900;10.774;2023-02-26T07:52:54;2.97;;;1.63;;
39502;SDS011;26970;49.900;10.774;2023-02-26T07:55:19;3.75;;;2.17;;
39502;SDS011;26970;49.900;10.774;2023-02-26T07:57:45;2.20;;;1.48;;
39502;SDS011;26970;49.900;10.774;2023-02-26T08:00:12;3.13;;;1.63;;
39502;SDS011;26970;49.900;10.774;2023-02-26T08:02:38;5.45;;;2.00;;
39502;SDS011;26970;49.900;10.774;2023-02-26T08:05:04;4.93;;;2.17;;
39502;SDS011;26970;49.900;10.774;2023-02-26T08:07:31;6.13;;;1.90;;
39502;SDS011;26970;49.900;10.774;2023-02-26T08:09:57;3.17;;;2.17;;
39502;SDS011;26970;49.900;10.774;2023-02-26T08:12:23;7.57;;;2.33;;
39502;SDS011;26970;49.900;10.774;2023-02-26T08:14:48;1.40;;;1.30;;
39502;SDS011;26970;49.900;10.774;2023-02-26T08:17:14;3.50;;;2.38;;
39502;SDS011;26970;49.900;10.774;2023-02-26T08:19:40;4.85;;;3.08;;
39502;SDS011;26970;49.900;10.774;2023-02-26T08:22:05;3.92;;;1.92;;
39502;SDS011;26970;49.900;10.774;2023-02-26T08:24:31;4.13;;;2.05;;
39502;SDS011;26970;49.900;10.774;2023-02-26T08:26:57;4.88;;;2.08;;
39502;SDS011;26970;49.900;10.774;2023-02-26T08:29:22;2.55;;;1.73;;
39502;SDS011;26970;49.900;10.774;2023-02-26T08:31:49;4.40;;;2.53;;
39502;SDS011;26970;49.900;10.774;2023-02-26T08:34:14;4.35;;;2.53;;
39502;SDS011;26970;49.900;10.774;2023-02-26T08:36:40;3.38;;;1.80;;
39502;SDS011;26970;49.900;10.774;2023-02-26T08:39:05;2.60;;;1.80;;
39502;SDS011;26970;49.900;10.774;2023-02-26T08:41:31;3.70;;;2.03;;
39502;SDS011;26970;49.900;10.774;2023-02-26T08:43:58;2.28;;;1.70;;
39502;SDS011;26970;49.900;10.774;2023-02-26T08:46:24;2.00;;;1.55;;
39502;SDS011;26970;49.900;10.774;2023-02-26T08:48:49;1.95;;;1.67;;
39502;SDS011;26970;49.900;10.774;2023-02-26T08:51:15;2.80;;;1.92;;
39502;SDS011;26970;49.900;10.774;2023-02-26T08:53:42;2.80;;;2.10;;
39502;SDS011;26970;49.900;10.774;2023-02-26T08:56:10;3.17;;;2.15;;
39502;SDS011;26970;49.900;10.774;2023-02-26T08:58:36;2.72;;;1.90;;
39502;SDS011;26970;49.900;10.774;2023-02-26T09:01:01;3.70;;;2.10;;
39502;SDS011;26970;49.900;10.774;2023-02-26T09:03:27;2.08;;;1.70;;
39502;SDS011;26970;49.900;10.774;2023-02-26T09:05:53;2.03;;;1.70;;
39502;SDS011;26970;49.900;10.774;2023-02-26T09:08:18;2.05;;;1.58;;
39502;SDS011;26970;49.900;10.774;2023-02-26T09:10:45;1.85;;;1.67;;
39502;SDS011;26970;49.900;10.774;2023-02-26T09:13:11;3.05;;;1.25;;
39502;SDS011;26970;49.900;10.774;2023-02-26T09:15:37;4.80;;;2.53;;
39502;SDS011;26970;49.900;10.774;2023-02-26T09:18:03;2.20;;;1.85;;
39502;SDS011;26970;49.900;10.774;2023-02-26T09:20:29;3.35;;;1.67;;
39502;SDS011;26970;49.900;10.774;2023-02-26T09:22:55;2.78;;;2.13;;
39502;SDS011;26970;49.900;10.774;2023-02-26T09:25:20;2.65;;;1.77;;
39502;SDS011;26970;49.900;10.774;2023-02-26T09:27:47;3.90;;;2.10;;
39502;SDS011;26970;49.900;10.774;2023-02-26T09:30:13;1.75;;;1.60;;
39502;SDS011;26970;49.900;10.774;2023-02-26T09:32:39;2.22;;;1.60;;
39502;SDS011;26970;49.900;10.774;2023-02-26T09:35:05;2.28;;;1.70;;
39502;SDS011;26970;49.900;10.774;2023-02-26T09:37:31;3.92;;;2.30;;
39502;SDS011;26970;49.900;10.774;2023-02-26T09:39:57;1.95;;;1.63;;
39502;SDS011;26970;49.900;10.774;2023-02-26T09:45:25;4.13;;;2.03;;
39502;SDS011;26970;49.900;10.774;2023-02-26T09:47:55;2.55;;;1.70;;
39502;SDS011;26970;49.900;10.774;2023-02-26T09:50:33;2.35;;;1.85;;
39502;SDS011;26970;49.900;10.774;2023-02-26T09:53:23;1.60;;;1.40;;
39502;SDS011;26970;49.900;10.774;2023-02-26T09:55:52;2.42;;;1.30;;
39502;SDS011;26970;49.900;10.774;2023-02-26T10:03:33;2.42;;;1.80;;
39502;SDS011;26970;49.900;10.774;2023-02-26T10:08:52;3.95;;;2.15;;
39502;SDS011;26970;49.900;10.774;2023-02-26T10:11:35;4.95;;;1.92;;
39502;SDS011;26970;49.900;10.774;2023-02-26T10:14:27;2.05;;;1.67;;
39502;SDS011;26970;49.900;10.774;2023-02-26T10:16:59;2.88;;;1.58;;
39502;SDS011;26970;49.900;10.774;2023-02-26T10:19:31;3.38;;;1.70;;
39502;SDS011;26970;49.900;10.774;2023-02-26T10:22:35;3.00;;;2.00;;
39502;SDS011;26970;49.900;10.774;2023-02-26T10:30:10;1.42;;;1.33;;
39502;SDS011;26970;49.900;10.774;2023-02-26T10:32:54;2.78;;;1.73;;
39502;SDS011;26970;49.900;10.774;2023-02-26T10:35:26;25.83;;;2.85;;
39502;SDS011;26970;49.900;10.774;2023-02-26T10:37:58;2.35;;;1.88;;
39502;SDS011;26970;49.900;10.774;2023-02-26T10:40:33;1.75;;;1.50;;
39502;SDS011;26970;49.900;10.774;2023-02-26T10:43:15;2.20;;;1.70;;
39502;SDS011;26970;49.900;10.774;2023-02-26T10:48:36;1.70;;;1.40;;
39502;SDS011;26970;49.900;10.774;2023-02-26T10:51:24;2.65;;;1.45;;
39502;SDS011;26970;49.900;10.774;2023-02-26T10:53:57;2.88;;;1.15;;
39502;SDS011;26970;49.900;10.774;2023-02-26T10:56:28;1.83;;;1.42;;
39502;SDS011;26970;49.900;10.774;2023-02-26T10:58:56;2.67;;;2.08;;
39502;SDS011;26970;49.900;10.774;2023-02-26T11:01:22;1.95;;;1.58;;
39502;SDS011;26970;49.900;10.774;2023-02-26T11:03:53;1.80;;;1.38;;
39502;SDS011;26970;49.900;10.774;2023-02-26T11:06:23;2.05;;;1.63;;
39502;SDS011;26970;49.900;10.774;2023-02-26T11:08:54;1.98;;;1.60;;
39502;SDS011;26970;49.900;10.774;2023-02-26T11:14:06;1.85;;;1.70;;
39502;SDS011;26970;49.900;10.774;2023-02-26T11:16:33;3.10;;;1.67;;
39502;SDS011;26970;49.900;10.774;2023-02-26T11:18:59;1.58;;;1.40;;
39502;SDS011;26970;49.900;10.774;2023-02-26T11:21:29;2.28;;;1.50;;
39502;SDS011;26970;49.900;10.774;2023-02-26T11:24:15;1.98;;;1.67;;
39502;SDS011;26970;49.900;10.774;2023-02-26T11:26:46;1.55;;;1.45;;
39502;SDS011;26970;49.900;10.774;2023-02-26T11:29:15;2.63;;;1.65;;
39502;SDS011;26970;49.900;10.774;2023-02-26T11:31:46;3.05;;;1.98;;
39502;SDS011;26970;49.900;10.774;2023-02-26T11:34:14;2.13;;;1.70;;
39502;SDS011;26970;49.900;10.774;2023-02-26T11:36:41;1.98;;;1.63;;
39502;SDS011;26970;49.900;10.774;2023-02-26T11:39:20;6.05;;;2.25;;
39502;SDS011;26970;49.900;10.774;2023-02-26T11:41:48;3.33;;;1.90;;
39502;SDS011;26970;49.900;10.774;2023-02-26T11:44:17;1.77;;;1.52;;
39502;SDS011;26970;49.900;10.774;2023-02-26T11:46:50;2.13;;;1.80;;
39502;SDS011;26970;49.900;10.774;2023-02-26T11:49:20;2.30;;;1.40;;
39502;SDS011;26970;49.900;10.774;2023-02-26T11:51:59;3.35;;;1.60;;
39502;SDS011;26970;49.900;10.774;2023-02-26T11:54:40;2.00;;;1.80;;
39502;SDS011;26970;49.900;10.774;2023-02-26T11:57:19;9.57;;;2.35;;
39502;SDS011;26970;49.900;10.774;2023-02-26T11:59:50;3.97;;;1.90;;
39502;SDS011;26970;49.900;10.774;2023-02-26T12:02:18;6.15;;;1.70;;
39502;SDS011;26970;49.900;10.774;2023-02-26T12:04:47;2.33;;;1.65;;
39502;SDS011;26970;49.900;10.774;2023-02-26T12:07:16;3.03;;;1.58;;
39502;SDS011;26970;49.900;10.774;2023-02-26T12:09:43;1.48;;;1.30;;
39502;SDS011;26970;49.900;10.774;2023-02-26T12:12:19;2.25;;;1.35;;
39502;SDS011;26970;49.900;10.774;2023-02-26T12:20:28;1.45;;;1.35;;
39502;SDS011;26970;49.900;10.774;2023-02-26T12:28:37;1.67;;;1.40;;
39502;SDS011;26970;49.900;10.774;2023-02-26T12:34:03;1.98;;;1.58;;
39502;SDS011;26970;49.900;10.774;2023-02-26T12:45:16;1.15;;;1.05;;
39502;SDS011;26970;49.900;10.774;2023-02-26T13:05:04;1.77;;;1.23;;
39502;SDS011;26970;49.900;10.774;2023-02-26T13:19:01;1.25;;;1.15;;
39502;SDS011;26970;49.900;10.774;2023-02-26T13:21:55;1.00;;;1.00;;
39502;SDS011;26970;49.900;10.774;2023-02-26T13:24:38;1.20;;;1.08;;
39502;SDS011;26970;49.900;10.774;2023-02-26T13:27:11;2.50;;;1.27;;
39502;SDS011;26970;49.900;10.774;2023-02-26T13:32:15;1.40;;;1.13;;
39502;SDS011;26970;49.900;10.774;2023-02-26T13:37:50;4.15;;;2.33;;
39502;SDS011;26970;49.900;10.774;2023-02-26T13:40:35;2.95;;;1.50;;
39502;SDS011;26970;49.900;10.774;2023-02-26T13:49:07;1.63;;;1.17;;
39502;SDS011;26970;49.900;10.774;2023-02-26T13:51:41;4.38;;;1.58;;
39502;SDS011;26970;49.900;10.774;2023-02-26T13:59:44;0.93;;;0.93;;
39502;SDS011;26970;49.900;10.774;2023-02-26T14:05:27;1.20;;;1.10;;
39502;SDS011;26970;49.900;10.774;2023-02-26T14:13:11;4.15;;;1.70;;
39502;SDS011;26970;49.900;10.774;2023-02-26T14:15:49;2.17;;;1.63;;
39502;SDS011;26970;49.900;10.774;2023-02-26T14:23:48;0.90;;;0.90;;
39502;SDS011;26970;49.900;10.774;2023-02-26T14:26:17;0.95;;;0.93;;
39502;SDS011;26970;49.900;10.774;2023-02-26T14:28:45;2.25;;;1.70;;
39502;SDS011;26970;49.900;10.774;2023-02-26T14:31:21;1.30;;;1.20;;
39502;SDS011;26970;49.900;10.774;2023-02-26T14:33:58;3.60;;;1.15;;
39502;SDS011;26970;49.900;10.774;2023-02-26T14:39:46;2.38;;;1.83;;
39502;SDS011;26970;49.900;10.774;2023-02-26T14:42:07;5.28;;;1.40;;
39502;SDS011;26970;49.900;10.774;2023-02-26T14:44:41;1.77;;;1.30;;
39502;SDS011;26970;49.900;10.774;2023-02-26T14:47:09;1.92;;;1.27;;
39502;SDS011;26970;49.900;10.774;2023-02-26T14:49:37;1.00;;;1.00;;
39502;SDS011;26970;49.900;10.774;2023-02-26T14:57:38;2.45;;;1.20;;
39502;SDS011;26970;49.900;10.774;2023-02-26T15:08:37;2.58;;;1.40;;
39502;SDS011;26970;49.900;10.774;2023-02-26T15:20:39;3.70;;;1.90;;
39502;SDS011;26970;49.900;10.774;2023-02-26T15:23:22;1.25;;;1.15;;
39502;SDS011;26970;49.900;10.774;2023-02-26T15:25:49;1.73;;;1.27;;
39502;SDS011;26970;49.900;10.774;2023-02-26T15:28:35;5.63;;;1.25;;
39502;SDS011;26970;49.900;10.774;2023-02-26T15:31:03;1.05;;;1.00;;
39502;SDS011;26970;49.900;10.774;2023-02-26T15:33:31;1.90;;;1.20;;
39502;SDS011;26970;49.900;10.774;2023-02-26T15:35:58;2.80;;;1.38;;
39502;SDS011;26970;49.900;10.774;2023-02-26T15:38:25;1.20;;;1.10;;
39502;SDS011;26970;49.900;10.774;2023-02-26T15:40:51;0.90;;;0.90;;
39502;SDS011;26970;49.900;10.774;2023-02-26T15:43:22;1.30;;;1.20;;
39502;SDS011;26970;49.900;10.774;2023-02-26T15:45:52;2.08;;;1.17;;
39502;SDS011;26970;49.900;10.774;2023-02-26T15:48:36;0.90;;;0.90;;
39502;SDS011;26970;49.900;10.774;2023-02-26T15:51:06;1.40;;;1.30;;
39502;SDS011;26970;49.900;10.774;2023-02-26T15:53:35;0.93;;;0.93;;
39502;SDS011;26970;49.900;10.774;2023-02-26T15:56:05;3.35;;;1.10;;
39502;SDS011;26970;49.900;10.774;2023-02-26T15:58:42;2.38;;;1.17;;
39502;SDS011;26970;49.900;10.774;2023-02-26T16:01:13;1.15;;;0.95;;
39502;SDS011;26970;49.900;10.774;2023-02-26T16:03:50;1.95;;;1.45;;
39502;SDS011;26970;49.900;10.774;2023-02-26T16:06:19;1.75;;;1.25;;
39502;SDS011;26970;49.900;10.774;2023-02-26T16:08:49;2.10;;;1.30;;
39502;SDS011;26970;49.900;10.774;2023-02-26T16:11:15;1.77;;;1.33;;
39502;SDS011;26970;49.900;10.774;2023-02-26T16:13:42;1.08;;;0.98;;
39502;SDS011;26970;49.900;10.774;2023-02-26T16:16:15;1.13;;;1.00;;
39502;SDS011;26970;49.900;10.774;2023-02-26T16:18:44;0.98;;;0.95;;
39502;SDS011;26970;49.900;10.774;2023-02-26T16:21:15;1.13;;;1.10;;
39502;SDS011;26970;49.900;10.774;2023-02-26T16:23:52;1.45;;;1.27;;
39502;SDS011;26970;49.900;10.774;2023-02-26T16:26:21;1.73;;;1.30;;
39502;SDS011;26970;49.900;10.774;2023-02-26T16:28:54;1.92;;;1.25;;
39502;SDS011;26970;49.900;10.774;2023-02-26T16:31:41;1.88;;;1.50;;
39502;SDS011;26970;49.900;10.774;2023-02-26T16:36:53;2.65;;;1.70;;
39502;SDS011;26970;49.900;10.774;2023-02-26T16:39:25;3.60;;;1.73;;
39502;SDS011;26970;49.900;10.774;2023-02-26T16:42:02;2.28;;;1.40;;
39502;SDS011;26970;49.900;10.774;2023-02-26T16:44:36;2.63;;;1.63;;
39502;SDS011;26970;49.900;10.774;2023-02-26T16:47:07;1.13;;;1.10;;
39502;SDS011;26970;49.900;10.774;2023-02-26T16:49:35;3.78;;;2.05;;
39502;SDS011;26970;49.900;10.774;2023-02-26T16:52:02;1.63;;;1.20;;
39502;SDS011;26970;49.900;10.774;2023-02-26T16:54:30;1.30;;;1.20;;
39502;SDS011;26970;49.900;10.774;2023-02-26T16:57:10;3.05;;;1.42;;
39502;SDS011;26970;49.900;10.774;2023-02-26T16:59:44;3.30;;;1.70;;
39502;SDS011;26970;49.900;10.774;2023-02-26T17:02:19;2.13;;;1.40;;
39502;SDS011;26970;49.900;10.774;2023-02-26T17:04:56;1.17;;;1.17;;
39502;SDS011;26970;49.900;10.774;2023-02-26T17:07:26;2.42;;;1.55;;
39502;SDS011;26970;49.900;10.774;2023-02-26T17:09:54;4.38;;;1.70;;
39502;SDS011;26970;49.900;10.774;2023-02-26T17:12:26;1.17;;;1.02;;
39502;SDS011;26970;49.900;10.774;2023-02-26T17:15:11;4.03;;;1.90;;
39502;SDS011;26970;49.900;10.774;2023-02-26T17:17:41;4.30;;;2.13;;
39502;SDS011;26970;49.900;10.774;2023-02-26T17:20:07;3.20;;;1.70;;
39502;SDS011;26970;49.900;10.774;2023-02-26T17:22:34;1.55;;;1.38;;
39502;SDS011;26970;49.900;10.774;2023-02-26T17:25:00;2.03;;;1.40;;
39502;SDS011;26970;49.900;10.774;2023-02-26T17:27:27;1.15;;;1.05;;
39502;SDS011;26970;49.900;10.774;2023-02-26T17:29:55;1.73;;;1.52;;
39502;SDS011;26970;49.900;10.774;2023-02-26T17:32:22;3.42;;;1.95;;
39502;SDS011;26970;49.900;10.774;2023-02-26T17:34:51;3.17;;;1.88;;
39502;SDS011;26970;49.900;10.774;2023-02-26T17:37:17;1.77;;;1.20;;
39502;SDS011;26970;49.900;10.774;2023-02-26T17:39:43;2.67;;;1.67;;
39502;SDS011;26970;49.900;10.774;2023-02-26T17:42:10;2.85;;;1.45;;
39502;SDS011;26970;49.900;10.774;2023-02-26T17:44:41;3.17;;;1.90;;
39502;SDS011;26970;49.900;10.774;2023-02-26T17:47:12;3.38;;;2.03;;
39502;SDS011;26970;49.900;10.774;2023-02-26T17:49:40;4.15;;;2.08;;
39502;SDS011;26970;49.900;10.774;2023-02-26T17:52:06;3.40;;;2.05;;
39502;SDS011;26970;49.900;10.774;2023-02-26T17:54:32;2.75;;;1.83;;
39502;SDS011;26970;49.900;10.774;2023-02-26T17:56:58;4.25;;;2.47;;
39502;SDS011;26970;49.900;10.774;2023-02-26T17:59:24;4.57;;;2.30;;
39502;SDS011;26970;49.900;10.774;2023-02-26T18:01:49;6.93;;;2.85;;
39502;SDS011;26970;49.900;10.774;2023-02-26T18:04:15;5.28;;;2.63;;
39502;SDS011;26970;49.900;10.774;2023-02-26T18:06:40;5.15;;;2.42;;